Eufaula, Alabama
Current Conditions -  °F | °C
As of 3:58 PM on Sunday 25 Jan 2015 (Local Time) from KEUF Reporting Station
Clear Clear  
Wind Chill: 18°   Ceiling: Unl
Heat Index: 18°   Visibility: 10mi
Dew Point:   Wind: 10mph
Humidity: 35%   Direction: 190°S
Pressure: 29.79"   Gusts: 17mph
Location:  31.9°N, 85.14°W
Report Text: KEUF 252158Z AUTO 19009G15KT 10SM CLR 18/02 A2979 RMK AO2 SLP087 T01780022
Loading
Personal Weather Stations






























Interactive Weather Map New forecast layout! Learn more

10-Day Weather Forecast

Advertisements
Track Severe Weather on mobile